createdAt,value
2019-01-09T00:01:30.369Z,2.15
2019-01-09T00:04:01.015Z,2.15
2019-01-09T00:06:31.704Z,2.12
2019-01-09T00:09:02.371Z,2.09
2019-01-09T00:11:33.020Z,2.09
2019-01-09T00:14:03.719Z,2.06
2019-01-09T00:16:34.479Z,2.04
2019-01-09T00:19:05.097Z,2.01
2019-01-09T00:21:35.848Z,1.98
2019-01-09T00:24:06.597Z,1.97
2019-01-09T00:26:37.277Z,1.92
2019-01-09T00:29:07.949Z,1.96
2019-01-09T00:31:38.639Z,1.97
2019-01-09T00:34:09.186Z,1.94
2019-01-09T00:36:39.867Z,1.94
2019-01-09T00:39:10.588Z,1.96
2019-01-09T00:41:41.130Z,1.97
2019-01-09T00:44:11.829Z,1.93
2019-01-09T00:46:42.938Z,1.86
2019-01-09T00:49:13.538Z,1.89
2019-01-09T00:51:44.123Z,1.90
2019-01-09T00:54:15.038Z,1.85
2019-01-09T00:56:45.658Z,1.84
2019-01-09T00:59:16.158Z,1.83
2019-01-09T01:02:01.149Z,1.82
2019-01-09T01:05:29.121Z,1.84
2019-01-09T01:08:44.788Z,1.80
2019-01-09T01:12:12.758Z,1.80
2019-01-09T01:15:40.698Z,1.77
2019-01-09T01:18:58.268Z,1.75
2019-01-09T01:21:39.543Z,1.74
2019-01-09T01:24:59.013Z,1.75
2019-01-09T01:28:10.736Z,1.72
2019-01-09T01:31:31.283Z,1.65
2019-01-09T01:34:46.801Z,1.59
2019-01-09T01:38:11.439Z,1.50
2019-01-09T01:41:29.608Z,1.46
2019-01-09T01:44:34.618Z,1.44
2019-01-09T01:47:47.375Z,1.41
2019-01-09T01:50:54.921Z,1.38
2019-01-09T01:54:22.808Z,1.37
2019-01-09T01:57:46.607Z,1.40
2019-01-09T02:00:31.828Z,1.42
2019-01-09T02:03:59.839Z,1.38
2019-01-09T02:07:23.586Z,1.37
2019-01-09T02:10:51.610Z,1.36
2019-01-09T02:13:50.618Z,1.31
2019-01-09T02:17:18.619Z,1.25
2019-01-09T02:20:17.519Z,1.21
2019-01-09T02:23:33.608Z,1.24
2019-01-09T02:26:22.298Z,1.23
2019-01-09T02:29:32.868Z,1.24
2019-01-09T02:32:31.068Z,1.26
2019-01-09T02:35:01.749Z,1.22
2019-01-09T02:37:32.487Z,1.27
2019-01-09T02:40:03.148Z,1.22
2019-01-09T02:42:33.671Z,1.27
2019-01-09T02:45:04.282Z,1.26
2019-01-09T02:47:34.888Z,1.27
2019-01-09T02:50:06.388Z,1.30
2019-01-09T02:52:36.969Z,1.27
2019-01-09T02:55:08.862Z,1.29
2019-01-09T02:57:39.506Z,1.26
2019-01-09T03:00:13.233Z,1.29
2019-01-09T03:02:44.267Z,1.29
2019-01-09T03:05:15.267Z,1.30
2019-01-09T03:07:45.932Z,1.32
2019-01-09T03:10:16.580Z,1.32
2019-01-09T03:12:47.100Z,1.30
2019-01-09T03:15:17.689Z,1.28
2019-01-09T03:17:48.173Z,1.31
2019-01-09T03:20:18.849Z,1.31
2019-01-09T03:22:49.378Z,1.28
2019-01-09T03:25:19.874Z,1.26
2019-01-09T03:27:50.528Z,1.26
2019-01-09T03:30:21.152Z,1.24
2019-01-09T03:32:51.740Z,1.18
2019-01-09T03:35:22.303Z,1.20
2019-01-09T03:37:52.911Z,1.17
2019-01-09T03:40:23.838Z,1.15
2019-01-09T03:42:54.568Z,1.16
2019-01-09T03:45:25.178Z,1.15
2019-01-09T03:47:55.702Z,1.13
2019-01-09T03:50:26.299Z,1.10
2019-01-09T03:52:56.656Z,1.10
2019-01-09T03:55:27.161Z,1.11
2019-01-09T03:57:57.780Z,1.11
2019-01-09T04:00:28.298Z,1.10
2019-01-09T04:02:58.804Z,1.09
2019-01-09T04:05:29.421Z,1.08
2019-01-09T04:08:00.012Z,1.07
2019-01-09T04:10:30.754Z,1.08
2019-01-09T04:13:01.350Z,1.09
2019-01-09T04:15:31.879Z,1.08
2019-01-09T04:18:02.349Z,1.07
2019-01-09T04:20:32.863Z,1.08
2019-01-09T04:23:03.442Z,1.09
2019-01-09T04:25:34.021Z,1.09
2019-01-09T04:28:04.721Z,1.11
2019-01-09T04:30:35.939Z,1.11
2019-01-09T04:33:06.520Z,1.14
2019-01-09T04:35:37.075Z,1.13
2019-01-09T04:38:07.738Z,1.12
2019-01-09T04:40:38.271Z,1.14
2019-01-09T04:43:08.879Z,1.13
2019-01-09T04:45:39.529Z,1.12
2019-01-09T04:48:10.117Z,1.13
2019-01-09T04:50:40.784Z,1.14
2019-01-09T04:53:11.327Z,1.11
2019-01-09T04:55:42.020Z,1.12
2019-01-09T04:58:12.997Z,1.11
2019-01-09T05:00:43.668Z,1.10
2019-01-09T05:03:14.152Z,1.08
2019-01-09T05:05:45.035Z,1.08
2019-01-09T05:08:15.608Z,1.06
2019-01-09T05:10:46.244Z,1.04
2019-01-09T05:13:16.778Z,1.03
2019-01-09T05:15:47.498Z,1.03
2019-01-09T05:18:18.035Z,1.02
2019-01-09T05:20:48.724Z,1.02
2019-01-09T05:23:19.568Z,0.99
2019-01-09T05:25:50.347Z,0.98
2019-01-09T05:28:21.113Z,0.91
2019-01-09T05:30:51.790Z,0.94
2019-01-09T05:33:22.459Z,0.89
2019-01-09T05:35:53.056Z,0.91
2019-01-09T05:38:23.659Z,0.94
2019-01-09T05:40:54.139Z,0.93
2019-01-09T05:43:24.780Z,0.88
2019-01-09T05:45:55.382Z,0.89
2019-01-09T05:48:25.877Z,0.91
2019-01-09T05:50:56.562Z,0.90
2019-01-09T05:53:27.230Z,0.87
2019-01-09T05:55:57.847Z,0.85
2019-01-09T05:58:28.649Z,0.86
2019-01-09T06:00:59.264Z,0.84
2019-01-09T06:03:29.811Z,0.85
2019-01-09T06:06:00.429Z,0.83
2019-01-09T06:08:31.427Z,0.81
2019-01-09T06:11:02.152Z,0.81
2019-01-09T06:13:32.874Z,0.79
2019-01-09T06:16:03.579Z,0.81
2019-01-09T06:18:34.214Z,0.80
2019-01-09T06:21:05.278Z,0.81
2019-01-09T06:23:36.066Z,0.81
2019-01-09T06:26:06.844Z,0.83
2019-01-09T06:28:37.616Z,0.84
2019-01-09T06:31:08.302Z,0.82
2019-01-09T06:33:38.946Z,0.83
2019-01-09T06:36:09.617Z,0.80
2019-01-09T06:38:40.372Z,0.81
2019-01-09T06:41:11.112Z,0.83
2019-01-09T06:43:41.830Z,0.80
2019-01-09T06:46:12.605Z,0.80
2019-01-09T06:48:43.470Z,0.78
2019-01-09T06:51:14.418Z,0.80
2019-01-09T06:53:45.251Z,0.81
2019-01-09T06:56:15.814Z,0.78
2019-01-09T06:58:46.618Z,0.77
2019-01-09T07:01:17.385Z,0.77
2019-01-09T07:03:47.997Z,0.79
2019-01-09T07:06:18.970Z,0.78
2019-01-09T07:08:49.669Z,0.75
2019-01-09T07:11:20.448Z,0.74
2019-01-09T07:13:51.099Z,0.72
2019-01-09T07:16:21.764Z,0.71
2019-01-09T07:18:52.439Z,0.73
2019-01-09T07:21:23.064Z,0.72
2019-01-09T07:23:53.753Z,0.71
2019-01-09T07:26:24.468Z,0.74
2019-01-09T07:28:55.232Z,0.75
2019-01-09T07:31:25.951Z,0.75
2019-01-09T07:33:56.636Z,0.73
2019-01-09T07:36:27.590Z,0.78
2019-01-09T07:38:58.282Z,0.78
2019-01-09T07:41:28.929Z,0.82
2019-01-09T07:43:59.738Z,0.81
2019-01-09T07:46:30.466Z,0.84
2019-01-09T07:49:01.523Z,0.87
2019-01-09T07:51:32.321Z,0.88
2019-01-09T07:54:02.984Z,0.90
2019-01-09T07:56:33.787Z,0.89
2019-01-09T07:59:04.763Z,0.86
2019-01-09T08:01:35.580Z,0.88
2019-01-09T08:04:06.259Z,0.87
2019-01-09T08:06:36.948Z,0.84
2019-01-09T08:09:08.854Z,0.87
2019-01-09T08:11:39.789Z,0.87
2019-01-09T08:14:10.478Z,0.86
2019-01-09T08:16:41.175Z,0.87
2019-01-09T08:19:11.764Z,0.87
2019-01-09T08:21:42.369Z,0.87
2019-01-09T08:24:13.080Z,0.86
2019-01-09T08:26:43.799Z,0.90
2019-01-09T08:29:14.503Z,0.89
2019-01-09T08:31:45.199Z,0.88
2019-01-09T08:34:15.807Z,0.88
2019-01-09T08:36:46.523Z,0.88
2019-01-09T08:39:17.208Z,0.89
2019-01-09T08:41:47.926Z,0.91
2019-01-09T08:44:18.603Z,0.93
2019-01-09T08:46:49.481Z,0.91
2019-01-09T08:49:21.023Z,0.94
2019-01-09T08:51:51.728Z,0.90
2019-01-09T08:54:22.388Z,0.91
2019-01-09T08:56:52.973Z,0.93
2019-01-09T08:59:23.603Z,0.95
2019-01-09T09:01:54.208Z,0.89
2019-01-09T09:04:24.767Z,0.93
2019-01-09T09:06:55.603Z,0.96
2019-01-09T09:09:27.920Z,1.00
2019-01-09T09:11:58.623Z,1.00
2019-01-09T09:14:29.283Z,1.02
2019-01-09T09:16:59.816Z,1.03
2019-01-09T09:19:30.325Z,1.04
2019-01-09T09:22:00.987Z,1.06
2019-01-09T09:24:31.621Z,1.10
2019-01-09T09:27:02.209Z,1.15
2019-01-09T09:29:32.851Z,1.23
2019-01-09T09:32:03.739Z,1.29
2019-01-09T09:34:34.604Z,1.26
2019-01-09T09:37:05.248Z,1.32
2019-01-09T09:39:35.918Z,1.36
2019-01-09T09:42:06.660Z,1.42
2019-01-09T09:44:37.328Z,1.49
2019-01-09T09:47:07.929Z,1.49
2019-01-09T09:49:38.615Z,1.50
2019-01-09T09:52:09.373Z,1.55
2019-01-09T09:54:39.968Z,1.53
2019-01-09T09:57:10.713Z,1.54
2019-01-09T09:59:41.235Z,1.60
2019-01-09T10:02:11.901Z,1.67
2019-01-09T10:04:42.529Z,1.71
2019-01-09T10:07:13.006Z,1.71
2019-01-09T10:09:43.604Z,1.80
2019-01-09T10:12:14.207Z,1.83
2019-01-09T10:14:44.816Z,1.81
2019-01-09T10:17:15.449Z,1.92
2019-01-09T10:19:46.273Z,1.98
2019-01-09T10:22:17.401Z,1.99
2019-01-09T10:24:48.010Z,2.01
2019-01-09T10:27:18.562Z,2.02
2019-01-09T10:29:49.249Z,2.04
2019-01-09T10:32:19.952Z,2.08
2019-01-09T10:34:50.588Z,2.12
2019-01-09T10:37:21.366Z,2.08
2019-01-09T10:39:51.968Z,2.17
2019-01-09T10:42:22.579Z,2.16
2019-01-09T10:44:53.191Z,2.13
2019-01-09T10:47:23.903Z,2.12
2019-01-09T10:49:54.551Z,2.19
2019-01-09T10:52:25.232Z,2.21
2019-01-09T10:54:55.830Z,2.24
2019-01-09T10:57:26.596Z,2.26
2019-01-09T10:59:57.224Z,2.23
2019-01-09T11:02:28.140Z,2.26
2019-01-09T11:04:58.987Z,2.29
2019-01-09T11:07:29.538Z,2.29
2019-01-09T11:10:00.271Z,2.35
2019-01-09T11:12:30.796Z,2.35
2019-01-09T11:15:01.439Z,2.31
2019-01-09T11:17:32.113Z,2.29
2019-01-09T11:20:02.811Z,2.26
2019-01-09T11:22:33.434Z,2.12
2019-01-09T11:25:04.220Z,2.08
2019-01-09T11:27:34.998Z,2.10
2019-01-09T11:30:08.079Z,2.13
2019-01-09T11:32:38.827Z,2.18
2019-01-09T11:35:11.117Z,2.17
2019-01-09T11:37:41.811Z,2.07
2019-01-09T11:40:14.378Z,2.10
2019-01-09T11:42:45.310Z,2.17
2019-01-09T11:45:17.843Z,2.01
2019-01-09T11:47:49.288Z,2.07
2019-01-09T11:50:20.004Z,2.09
2019-01-09T11:52:50.651Z,2.18
2019-01-09T11:55:21.303Z,2.22
2019-01-09T11:57:51.932Z,2.14
2019-01-09T12:00:29.527Z,2.11
2019-01-09T12:03:00.289Z,2.19
2019-01-09T12:05:31.002Z,2.26
2019-01-09T12:08:01.651Z,2.34
2019-01-09T12:10:32.174Z,2.41
2019-01-09T12:13:02.740Z,2.52
2019-01-09T12:15:33.506Z,2.54
2019-01-09T12:18:03.994Z,2.58
2019-01-09T12:20:34.602Z,2.61
2019-01-09T12:23:05.428Z,2.65
2019-01-09T12:25:36.347Z,2.62
2019-01-09T12:28:07.180Z,2.70
2019-01-09T12:30:37.858Z,2.78
2019-01-09T12:33:08.338Z,2.77
2019-01-09T12:35:39.037Z,2.83
2019-01-09T12:38:09.718Z,2.84
2019-01-09T12:40:40.530Z,2.66
2019-01-09T12:43:11.140Z,2.73
2019-01-09T12:45:42.137Z,2.80
2019-01-09T12:48:12.853Z,2.79
2019-01-09T12:50:43.484Z,2.68
2019-01-09T12:53:14.263Z,2.74
2019-01-09T12:55:45.388Z,2.78
2019-01-09T12:58:16.367Z,2.73
2019-01-09T13:00:47.128Z,2.73
2019-01-09T13:03:17.862Z,2.59
2019-01-09T13:05:48.722Z,2.44
2019-01-09T13:08:19.541Z,2.22
2019-01-09T13:10:50.331Z,2.21
2019-01-09T13:13:21.037Z,2.06
2019-01-09T13:15:51.811Z,2.19
2019-01-09T13:18:22.893Z,2.06
2019-01-09T13:20:53.700Z,1.99
2019-01-09T13:23:24.318Z,2.03
2019-01-09T13:25:54.922Z,1.99
2019-01-09T13:28:25.642Z,1.94
2019-01-09T13:30:56.275Z,2.03
2019-01-09T13:33:26.945Z,2.09
2019-01-09T13:35:57.925Z,2.12
2019-01-09T13:38:29.253Z,2.12
2019-01-09T13:41:00.019Z,2.16
2019-01-09T13:43:30.669Z,2.31
2019-01-09T13:46:01.865Z,2.17
2019-01-09T13:48:32.551Z,2.11
2019-01-09T13:51:03.334Z,2.03
2019-01-09T13:53:34.054Z,1.98
2019-01-09T13:56:05.074Z,1.90
2019-01-09T13:58:35.812Z,1.97
2019-01-09T14:01:07.022Z,1.96
2019-01-09T14:03:38.569Z,1.79
2019-01-09T14:06:09.678Z,1.71
2019-01-09T14:08:40.408Z,1.78
2019-01-09T14:11:11.154Z,1.87
2019-01-09T14:13:42.199Z,1.81
2019-01-09T14:16:13.160Z,1.65
2019-01-09T14:18:43.862Z,1.73
2019-01-09T14:21:14.550Z,1.61
2019-01-09T14:23:45.436Z,1.61
2019-01-09T14:26:16.235Z,1.54
2019-01-09T14:28:47.224Z,1.63
2019-01-09T14:31:17.866Z,1.74
2019-01-09T14:33:48.478Z,1.61
2019-01-09T14:36:19.195Z,1.65
2019-01-09T14:38:49.750Z,1.74
2019-01-09T14:41:20.581Z,1.75
2019-01-09T14:43:51.350Z,1.73
2019-01-09T14:46:22.313Z,1.74
2019-01-09T14:48:52.952Z,1.70
2019-01-09T14:51:23.962Z,1.62
2019-01-09T14:53:54.634Z,1.54
2019-01-09T14:56:25.188Z,1.55
2019-01-09T14:58:55.858Z,1.52
2019-01-09T15:01:26.685Z,1.46
2019-01-09T15:03:57.578Z,1.45
2019-01-09T15:06:28.302Z,1.45
2019-01-09T15:08:58.908Z,1.44
2019-01-09T15:11:31.462Z,1.41
2019-01-09T15:14:02.170Z,1.39
2019-01-09T15:16:32.824Z,1.38
2019-01-09T15:19:03.542Z,1.35
2019-01-09T15:21:34.243Z,1.33
2019-01-09T15:24:08.526Z,1.33
2019-01-09T15:26:37.527Z,1.31
2019-01-09T15:29:08.295Z,1.30
2019-01-09T15:31:38.950Z,1.31
2019-01-09T15:34:09.623Z,1.28
2019-01-09T15:36:40.693Z,1.30
2019-01-09T15:39:11.340Z,1.27
2019-01-09T15:41:42.823Z,1.27
2019-01-09T15:44:13.921Z,1.26
2019-01-09T15:46:44.612Z,1.25
2019-01-09T15:49:15.307Z,1.24
2019-01-09T15:51:45.952Z,1.21
2019-01-09T15:54:16.748Z,1.21
2019-01-09T15:56:47.427Z,1.20
2019-01-09T15:59:18.099Z,1.16
2019-01-09T16:01:48.886Z,1.19
2019-01-09T16:04:19.569Z,1.18
2019-01-09T16:06:50.165Z,1.16
2019-01-09T16:09:20.950Z,1.15
2019-01-09T16:11:51.678Z,1.14
2019-01-09T16:14:22.420Z,1.12
2019-01-09T16:16:53.097Z,1.12
2019-01-09T16:19:23.719Z,1.11
2019-01-09T16:21:54.544Z,1.10
2019-01-09T16:24:25.243Z,1.07
2019-01-09T16:26:55.887Z,1.06
2019-01-09T16:29:26.771Z,1.06
2019-01-09T16:31:57.344Z,1.08
2019-01-09T16:34:28.068Z,1.07
2019-01-09T16:36:58.869Z,1.07
2019-01-09T16:39:31.296Z,1.07
2019-01-09T16:42:02.153Z,1.06
2019-01-09T16:44:33.047Z,1.01
2019-01-09T16:47:03.759Z,1.03
2019-01-09T16:49:34.728Z,1.04
2019-01-09T16:52:06.510Z,1.06
2019-01-09T16:54:37.258Z,1.11
2019-01-09T16:57:09.129Z,1.08
2019-01-09T16:59:40.109Z,1.07
2019-01-09T17:02:10.930Z,1.06
2019-01-09T17:04:41.724Z,1.04
2019-01-09T17:07:12.519Z,1.06
2019-01-09T17:09:43.288Z,1.05
2019-01-09T17:12:13.975Z,1.05
2019-01-09T17:14:44.789Z,1.04
2019-01-09T17:17:15.522Z,1.05
2019-01-09T17:19:47.307Z,1.05
2019-01-09T17:22:18.056Z,1.04
2019-01-09T17:24:49.186Z,1.03
2019-01-09T17:27:19.952Z,1.02
2019-01-09T17:29:50.659Z,1.03
2019-01-09T17:32:21.848Z,1.03
2019-01-09T17:34:52.668Z,1.01
2019-01-09T17:37:24.242Z,1.01
2019-01-09T17:39:56.308Z,1.01
2019-01-09T17:42:27.058Z,1.01
2019-01-09T17:44:58.058Z,1.01
2019-01-09T17:47:28.993Z,1.04
2019-01-09T17:49:59.618Z,1.06
2019-01-09T17:52:30.318Z,1.05
2019-01-09T17:55:01.056Z,1.07
2019-01-09T17:57:31.688Z,1.07
2019-01-09T18:00:02.509Z,1.07
2019-01-09T18:02:35.578Z,1.07
2019-01-09T18:05:07.384Z,1.08
2019-01-09T18:07:38.146Z,1.08
2019-01-09T18:10:14.946Z,1.11
2019-01-09T18:12:46.227Z,1.10
2019-01-09T18:15:20.850Z,1.11
2019-01-09T18:17:51.893Z,1.11
2019-01-09T18:20:22.854Z,1.10
2019-01-09T18:22:53.739Z,1.10
2019-01-09T18:25:27.139Z,1.11
2019-01-09T18:27:59.232Z,1.18
2019-01-09T18:30:42.422Z,1.14
2019-01-09T18:33:29.743Z,1.13
2019-01-09T18:36:25.550Z,1.14
2019-01-09T18:39:39.944Z,1.15
2019-01-09T18:43:02.725Z,1.12
2019-01-09T18:46:25.156Z,1.12
2019-01-09T18:49:24.210Z,1.10
2019-01-09T18:52:33.157Z,1.09
2019-01-09T18:55:08.210Z,1.08
2019-01-09T18:57:39.028Z,1.05
2019-01-09T19:00:21.799Z,1.03
2019-01-09T19:02:58.376Z,0.98
2019-01-09T19:05:31.349Z,0.96
2019-01-09T19:08:05.542Z,0.93
2019-01-09T19:10:38.621Z,0.90
2019-01-09T19:13:10.332Z,0.85
2019-01-09T19:15:41.192Z,0.82
2019-01-09T19:18:13.070Z,0.77
2019-01-09T19:20:46.415Z,0.74
2019-01-09T19:23:18.337Z,0.72
2019-01-09T19:25:50.519Z,0.68
2019-01-09T19:28:28.952Z,0.66
2019-01-09T19:31:02.159Z,0.69
2019-01-09T19:33:33.263Z,0.75
2019-01-09T19:36:08.472Z,0.75
2019-01-09T19:38:42.889Z,0.73
2019-01-09T19:41:19.168Z,0.71
2019-01-09T19:43:50.178Z,0.68
2019-01-09T19:46:22.249Z,0.68
2019-01-09T19:48:58.408Z,0.66
2019-01-09T19:51:32.599Z,0.61
2019-01-09T19:54:03.545Z,0.57
2019-01-09T19:56:36.337Z,0.53
2019-01-09T19:59:09.532Z,0.49
2019-01-09T20:01:43.501Z,0.50
2019-01-09T20:04:17.312Z,0.42
2019-01-09T20:06:49.164Z,0.38
2019-01-09T20:09:22.247Z,0.37
2019-01-09T20:11:56.048Z,0.32
2019-01-09T20:14:31.683Z,0.27
2019-01-09T20:17:08.868Z,0.25
2019-01-09T20:19:43.443Z,0.24
2019-01-09T20:22:19.048Z,0.25
2019-01-09T20:24:50.173Z,0.23
2019-01-09T20:27:24.990Z,0.22
2019-01-09T20:29:58.221Z,0.23
2019-01-09T20:32:30.347Z,0.28
2019-01-09T20:35:01.613Z,0.27
2019-01-09T20:37:32.828Z,0.21
2019-01-09T20:40:04.433Z,0.24
2019-01-09T20:42:37.851Z,0.26
2019-01-09T20:45:11.550Z,0.27
2019-01-09T20:47:44.821Z,0.28
2019-01-09T20:50:23.132Z,0.28
2019-01-09T20:52:55.139Z,0.28
2019-01-09T20:55:28.114Z,0.29
2019-01-09T20:58:01.218Z,0.28
2019-01-09T21:00:35.478Z,0.27
2019-01-09T21:03:11.529Z,0.31
2019-01-09T21:05:48.514Z,0.31
2019-01-09T21:08:21.758Z,0.34
2019-01-09T21:10:53.758Z,0.39
2019-01-09T21:13:24.583Z,0.48
2019-01-09T21:16:01.399Z,0.49
2019-01-09T21:18:35.803Z,0.51
2019-01-09T21:21:08.324Z,0.57
2019-01-09T21:23:38.955Z,0.57
2019-01-09T21:26:09.708Z,0.63
2019-01-09T21:28:41.938Z,0.63
2019-01-09T21:31:12.766Z,0.67
2019-01-09T21:33:43.751Z,0.65
2019-01-09T21:36:15.471Z,0.65
2019-01-09T21:38:46.103Z,0.67
2019-01-09T21:41:16.598Z,0.67
2019-01-09T21:43:48.652Z,0.65
2019-01-09T21:46:19.228Z,0.64
2019-01-09T21:48:49.921Z,0.64
2019-01-09T21:51:20.454Z,0.63
2019-01-09T21:53:51.088Z,0.61
2019-01-09T21:56:21.828Z,0.59
2019-01-09T21:58:52.463Z,0.62
2019-01-09T22:01:23.136Z,0.62
2019-01-09T22:03:53.761Z,0.64
2019-01-09T22:06:24.389Z,0.65
2019-01-09T22:08:55.058Z,0.65
2019-01-09T22:11:25.729Z,0.67
2019-01-09T22:13:56.356Z,0.70
2019-01-09T22:16:27.093Z,0.69
2019-01-09T22:18:57.730Z,0.68
2019-01-09T22:21:28.603Z,0.70
2019-01-09T22:23:59.309Z,0.75
2019-01-09T22:26:30.052Z,0.73
2019-01-09T22:29:00.832Z,0.72
2019-01-09T22:31:31.371Z,0.76
2019-01-09T22:34:01.872Z,0.75
2019-01-09T22:36:32.613Z,0.74
2019-01-09T22:39:03.377Z,0.74
2019-01-09T22:41:34.070Z,0.73
2019-01-09T22:44:05.551Z,0.70
2019-01-09T22:46:36.433Z,0.65
2019-01-09T22:49:07.413Z,0.60
2019-01-09T22:51:38.399Z,0.52
2019-01-09T22:54:09.007Z,0.49
2019-01-09T22:56:39.515Z,0.36
2019-01-09T22:59:10.128Z,0.33
2019-01-09T23:01:41.043Z,0.31
2019-01-09T23:04:11.912Z,0.33
2019-01-09T23:06:42.835Z,0.29
2019-01-09T23:09:13.717Z,0.30
2019-01-09T23:11:44.548Z,0.29
2019-01-09T23:14:15.451Z,0.27
2019-01-09T23:16:46.215Z,0.27
2019-01-09T23:19:17.079Z,0.23
2019-01-09T23:21:47.769Z,0.18
2019-01-09T23:24:18.460Z,0.16
2019-01-09T23:26:49.229Z,0.14
2019-01-09T23:29:20.275Z,0.16
2019-01-09T23:31:50.833Z,0.14
2019-01-09T23:34:21.492Z,0.16
2019-01-09T23:36:52.285Z,0.08
2019-01-09T23:39:23.129Z,0.08
2019-01-09T23:41:53.868Z,0.11
2019-01-09T23:44:24.443Z,0.08
2019-01-09T23:46:55.057Z,0.11
2019-01-09T23:49:25.663Z,0.07
2019-01-09T23:51:56.271Z,0.06
2019-01-09T23:54:26.843Z,0.03
2019-01-09T23:56:57.389Z,0.02
2019-01-09T23:59:28.083Z,0.03
